sensor_id;sensor_type;location;lat;lon;timestamp;P1;durP1;ratioP1;P2;durP2;ratioP2
6356;SDS011;3211;53.452;-2.264;2023-08-06T00:02:40;4.47;;;3.20;;
6356;SDS011;3211;53.452;-2.264;2023-08-06T00:05:22;5.37;;;3.33;;
6356;SDS011;3211;53.452;-2.264;2023-08-06T00:08:04;4.57;;;3.40;;
6356;SDS011;3211;53.452;-2.264;2023-08-06T00:10:47;6.10;;;3.57;;
6356;SDS011;3211;53.452;-2.264;2023-08-06T00:13:29;4.77;;;3.30;;
6356;SDS011;3211;53.452;-2.264;2023-08-06T00:16:12;6.33;;;4.03;;
6356;SDS011;3211;53.452;-2.264;2023-08-06T00:18:55;5.00;;;3.77;;
6356;SDS011;3211;53.452;-2.264;2023-08-06T00:21:37;4.53;;;3.20;;
6356;SDS011;3211;53.452;-2.264;2023-08-06T00:24:19;4.60;;;3.33;;
6356;SDS011;3211;53.452;-2.264;2023-08-06T00:27:01;4.10;;;3.37;;
6356;SDS011;3211;53.452;-2.264;2023-08-06T00:29:43;4.20;;;3.13;;
6356;SDS011;3211;53.452;-2.264;2023-08-06T00:32:26;6.27;;;3.40;;
6356;SDS011;3211;53.452;-2.264;2023-08-06T00:35:08;5.77;;;3.40;;
6356;SDS011;3211;53.452;-2.264;2023-08-06T00:37:50;4.70;;;3.30;;
6356;SDS011;3211;53.452;-2.264;2023-08-06T00:40:32;5.60;;;3.13;;
6356;SDS011;3211;53.452;-2.264;2023-08-06T00:43:14;8.37;;;3.80;;
6356;SDS011;3211;53.452;-2.264;2023-08-06T00:45:56;3.43;;;2.97;;
6356;SDS011;3211;53.452;-2.264;2023-08-06T00:48:40;4.60;;;3.70;;
6356;SDS011;3211;53.452;-2.264;2023-08-06T00:51:23;6.07;;;3.40;;
6356;SDS011;3211;53.452;-2.264;2023-08-06T00:54:07;4.10;;;3.70;;
6356;SDS011;3211;53.452;-2.264;2023-08-06T00:56:49;6.50;;;4.13;;
6356;SDS011;3211;53.452;-2.264;2023-08-06T00:59:31;5.13;;;3.70;;
6356;SDS011;3211;53.452;-2.264;2023-08-06T01:02:13;7.10;;;3.87;;
6356;SDS011;3211;53.452;-2.264;2023-08-06T01:04:57;7.30;;;4.27;;
6356;SDS011;3211;53.452;-2.264;2023-08-06T01:07:41;9.13;;;4.47;;
6356;SDS011;3211;53.452;-2.264;2023-08-06T01:10:33;5.77;;;3.83;;
6356;SDS011;3211;53.452;-2.264;2023-08-06T01:13:27;5.80;;;4.30;;
6356;SDS011;3211;53.452;-2.264;2023-08-06T01:16:14;6.00;;;4.27;;
6356;SDS011;3211;53.452;-2.264;2023-08-06T01:18:58;6.10;;;4.00;;
6356;SDS011;3211;53.452;-2.264;2023-08-06T01:21:41;6.17;;;4.20;;
6356;SDS011;3211;53.452;-2.264;2023-08-06T01:24:23;7.33;;;4.17;;
6356;SDS011;3211;53.452;-2.264;2023-08-06T01:27:06;6.53;;;4.70;;
6356;SDS011;3211;53.452;-2.264;2023-08-06T01:29:56;5.23;;;4.73;;
6356;SDS011;3211;53.452;-2.264;2023-08-06T01:32:43;7.00;;;4.60;;
6356;SDS011;3211;53.452;-2.264;2023-08-06T01:35:27;7.53;;;4.67;;
6356;SDS011;3211;53.452;-2.264;2023-08-06T01:38:12;9.10;;;4.93;;
6356;SDS011;3211;53.452;-2.264;2023-08-06T01:40:54;10.60;;;4.90;;
6356;SDS011;3211;53.452;-2.264;2023-08-06T01:43:36;8.03;;;4.50;;
6356;SDS011;3211;53.452;-2.264;2023-08-06T01:46:18;6.50;;;4.40;;
6356;SDS011;3211;53.452;-2.264;2023-08-06T01:49:02;6.23;;;4.50;;
6356;SDS011;3211;53.452;-2.264;2023-08-06T01:51:44;7.23;;;5.03;;
6356;SDS011;3211;53.452;-2.264;2023-08-06T01:54:27;5.63;;;4.67;;
6356;SDS011;3211;53.452;-2.264;2023-08-06T01:57:09;7.63;;;4.80;;
6356;SDS011;3211;53.452;-2.264;2023-08-06T01:59:51;6.40;;;5.20;;
6356;SDS011;3211;53.452;-2.264;2023-08-06T02:02:33;7.20;;;4.77;;
6356;SDS011;3211;53.452;-2.264;2023-08-06T02:05:15;5.83;;;4.57;;
6356;SDS011;3211;53.452;-2.264;2023-08-06T02:07:57;4.70;;;4.30;;
6356;SDS011;3211;53.452;-2.264;2023-08-06T02:10:40;12.83;;;5.90;;
6356;SDS011;3211;53.452;-2.264;2023-08-06T02:13:22;7.30;;;4.60;;
6356;SDS011;3211;53.452;-2.264;2023-08-06T02:16:06;8.23;;;5.80;;
6356;SDS011;3211;53.452;-2.264;2023-08-06T02:18:49;6.63;;;4.70;;
6356;SDS011;3211;53.452;-2.264;2023-08-06T02:21:31;7.53;;;4.93;;
6356;SDS011;3211;53.452;-2.264;2023-08-06T02:24:13;6.20;;;4.40;;
6356;SDS011;3211;53.452;-2.264;2023-08-06T02:26:56;11.37;;;5.23;;
6356;SDS011;3211;53.452;-2.264;2023-08-06T02:29:39;8.13;;;5.00;;
6356;SDS011;3211;53.452;-2.264;2023-08-06T02:32:22;6.57;;;4.67;;
6356;SDS011;3211;53.452;-2.264;2023-08-06T02:35:04;6.77;;;4.63;;
6356;SDS011;3211;53.452;-2.264;2023-08-06T02:37:46;5.07;;;4.20;;
6356;SDS011;3211;53.452;-2.264;2023-08-06T02:40:28;8.33;;;5.50;;
6356;SDS011;3211;53.452;-2.264;2023-08-06T02:43:11;7.20;;;4.97;;
6356;SDS011;3211;53.452;-2.264;2023-08-06T02:45:56;6.60;;;5.00;;
6356;SDS011;3211;53.452;-2.264;2023-08-06T02:48:39;6.77;;;4.67;;
6356;SDS011;3211;53.452;-2.264;2023-08-06T02:51:21;6.23;;;5.23;;
6356;SDS011;3211;53.452;-2.264;2023-08-06T02:54:03;8.10;;;5.03;;
6356;SDS011;3211;53.452;-2.264;2023-08-06T02:56:45;8.40;;;5.10;;
6356;SDS011;3211;53.452;-2.264;2023-08-06T02:59:28;8.00;;;4.80;;
6356;SDS011;3211;53.452;-2.264;2023-08-06T03:02:11;8.73;;;5.07;;
6356;SDS011;3211;53.452;-2.264;2023-08-06T03:04:53;7.00;;;5.10;;
6356;SDS011;3211;53.452;-2.264;2023-08-06T03:07:35;9.10;;;5.17;;
6356;SDS011;3211;53.452;-2.264;2023-08-06T03:10:17;8.07;;;5.47;;
6356;SDS011;3211;53.452;-2.264;2023-08-06T03:13:00;6.17;;;4.97;;
6356;SDS011;3211;53.452;-2.264;2023-08-06T03:15:43;7.50;;;5.23;;
6356;SDS011;3211;53.452;-2.264;2023-08-06T03:18:32;18.03;;;5.10;;
6356;SDS011;3211;53.452;-2.264;2023-08-06T03:21:14;7.13;;;4.80;;
6356;SDS011;3211;53.452;-2.264;2023-08-06T03:23:56;7.60;;;5.40;;
6356;SDS011;3211;53.452;-2.264;2023-08-06T03:26:38;7.57;;;4.90;;
6356;SDS011;3211;53.452;-2.264;2023-08-06T03:29:20;6.90;;;4.43;;
6356;SDS011;3211;53.452;-2.264;2023-08-06T03:32:04;5.83;;;5.10;;
6356;SDS011;3211;53.452;-2.264;2023-08-06T03:34:46;7.10;;;5.30;;
6356;SDS011;3211;53.452;-2.264;2023-08-06T03:37:28;10.73;;;5.50;;
6356;SDS011;3211;53.452;-2.264;2023-08-06T03:40:10;6.87;;;4.93;;
6356;SDS011;3211;53.452;-2.264;2023-08-06T03:42:52;8.17;;;5.37;;
6356;SDS011;3211;53.452;-2.264;2023-08-06T03:45:34;7.07;;;5.00;;
6356;SDS011;3211;53.452;-2.264;2023-08-06T03:48:17;9.07;;;5.47;;
6356;SDS011;3211;53.452;-2.264;2023-08-06T03:50:59;7.23;;;5.30;;
6356;SDS011;3211;53.452;-2.264;2023-08-06T03:53:42;10.03;;;5.60;;
6356;SDS011;3211;53.452;-2.264;2023-08-06T03:56:24;9.40;;;5.83;;
6356;SDS011;3211;53.452;-2.264;2023-08-06T03:59:06;6.73;;;5.30;;
6356;SDS011;3211;53.452;-2.264;2023-08-06T04:01:48;9.50;;;5.63;;
6356;SDS011;3211;53.452;-2.264;2023-08-06T04:04:31;5.30;;;4.77;;
6356;SDS011;3211;53.452;-2.264;2023-08-06T04:07:13;5.37;;;4.30;;
6356;SDS011;3211;53.452;-2.264;2023-08-06T04:09:56;7.57;;;5.07;;
6356;SDS011;3211;53.452;-2.264;2023-08-06T04:12:39;5.07;;;4.37;;
6356;SDS011;3211;53.452;-2.264;2023-08-06T04:15:21;5.73;;;5.00;;
6356;SDS011;3211;53.452;-2.264;2023-08-06T04:18:03;8.43;;;5.33;;
6356;SDS011;3211;53.452;-2.264;2023-08-06T04:20:46;7.40;;;4.57;;
6356;SDS011;3211;53.452;-2.264;2023-08-06T04:23:29;11.10;;;5.07;;
6356;SDS011;3211;53.452;-2.264;2023-08-06T04:26:11;7.53;;;5.10;;
6356;SDS011;3211;53.452;-2.264;2023-08-06T04:28:53;7.23;;;5.13;;
6356;SDS011;3211;53.452;-2.264;2023-08-06T04:31:35;7.30;;;5.30;;
6356;SDS011;3211;53.452;-2.264;2023-08-06T04:34:17;8.10;;;5.40;;
6356;SDS011;3211;53.452;-2.264;2023-08-06T04:37:00;6.83;;;5.10;;
6356;SDS011;3211;53.452;-2.264;2023-08-06T04:39:43;10.63;;;5.10;;
6356;SDS011;3211;53.452;-2.264;2023-08-06T04:42:25;7.33;;;5.80;;
6356;SDS011;3211;53.452;-2.264;2023-08-06T04:45:07;7.53;;;4.87;;
6356;SDS011;3211;53.452;-2.264;2023-08-06T04:47:50;15.40;;;5.57;;
6356;SDS011;3211;53.452;-2.264;2023-08-06T04:50:31;7.43;;;5.27;;
6356;SDS011;3211;53.452;-2.264;2023-08-06T04:53:15;6.93;;;5.53;;
6356;SDS011;3211;53.452;-2.264;2023-08-06T04:55:57;8.67;;;5.00;;
6356;SDS011;3211;53.452;-2.264;2023-08-06T04:58:39;9.23;;;5.57;;
6356;SDS011;3211;53.452;-2.264;2023-08-06T05:01:21;7.73;;;5.50;;
6356;SDS011;3211;53.452;-2.264;2023-08-06T05:04:03;7.37;;;5.63;;
6356;SDS011;3211;53.452;-2.264;2023-08-06T05:06:45;7.10;;;5.30;;
6356;SDS011;3211;53.452;-2.264;2023-08-06T05:09:28;7.53;;;4.80;;
6356;SDS011;3211;53.452;-2.264;2023-08-06T05:12:10;7.03;;;5.33;;
6356;SDS011;3211;53.452;-2.264;2023-08-06T05:14:52;6.80;;;4.77;;
6356;SDS011;3211;53.452;-2.264;2023-08-06T05:17:34;8.97;;;5.50;;
6356;SDS011;3211;53.452;-2.264;2023-08-06T05:20:16;8.40;;;5.40;;
6356;SDS011;3211;53.452;-2.264;2023-08-06T05:22:58;8.40;;;5.10;;
6356;SDS011;3211;53.452;-2.264;2023-08-06T05:25:42;7.70;;;5.00;;
6356;SDS011;3211;53.452;-2.264;2023-08-06T05:28:24;9.63;;;5.30;;
6356;SDS011;3211;53.452;-2.264;2023-08-06T05:31:06;8.50;;;5.73;;
6356;SDS011;3211;53.452;-2.264;2023-08-06T05:33:47;12.83;;;5.23;;
6356;SDS011;3211;53.452;-2.264;2023-08-06T05:36:29;9.50;;;6.23;;
6356;SDS011;3211;53.452;-2.264;2023-08-06T05:39:11;7.73;;;5.63;;
6356;SDS011;3211;53.452;-2.264;2023-08-06T05:41:55;9.40;;;5.60;;
6356;SDS011;3211;53.452;-2.264;2023-08-06T05:44:37;9.13;;;6.20;;
6356;SDS011;3211;53.452;-2.264;2023-08-06T05:47:19;8.90;;;6.30;;
6356;SDS011;3211;53.452;-2.264;2023-08-06T05:50:00;8.73;;;5.27;;
6356;SDS011;3211;53.452;-2.264;2023-08-06T05:52:42;8.53;;;6.07;;
6356;SDS011;3211;53.452;-2.264;2023-08-06T05:55:28;7.80;;;6.03;;
6356;SDS011;3211;53.452;-2.264;2023-08-06T05:58:16;9.13;;;6.30;;
6356;SDS011;3211;53.452;-2.264;2023-08-06T06:01:00;11.13;;;6.40;;
6356;SDS011;3211;53.452;-2.264;2023-08-06T06:03:42;7.90;;;5.90;;
6356;SDS011;3211;53.452;-2.264;2023-08-06T06:06:24;9.03;;;5.70;;
6356;SDS011;3211;53.452;-2.264;2023-08-06T06:09:05;11.03;;;5.93;;
6356;SDS011;3211;53.452;-2.264;2023-08-06T06:11:47;7.30;;;5.50;;
6356;SDS011;3211;53.452;-2.264;2023-08-06T06:14:31;10.63;;;5.87;;
6356;SDS011;3211;53.452;-2.264;2023-08-06T06:17:13;7.87;;;5.60;;
6356;SDS011;3211;53.452;-2.264;2023-08-06T06:19:55;11.80;;;6.50;;
6356;SDS011;3211;53.452;-2.264;2023-08-06T06:22:37;8.27;;;5.77;;
6356;SDS011;3211;53.452;-2.264;2023-08-06T06:25:19;13.00;;;6.17;;
6356;SDS011;3211;53.452;-2.264;2023-08-06T06:28:01;8.37;;;5.80;;
6356;SDS011;3211;53.452;-2.264;2023-08-06T06:30:44;8.13;;;6.17;;
6356;SDS011;3211;53.452;-2.264;2023-08-06T06:33:26;11.20;;;6.00;;
6356;SDS011;3211;53.452;-2.264;2023-08-06T06:36:08;11.10;;;6.93;;
6356;SDS011;3211;53.452;-2.264;2023-08-06T06:38:50;7.97;;;5.80;;
6356;SDS011;3211;53.452;-2.264;2023-08-06T06:41:32;8.03;;;5.70;;
6356;SDS011;3211;53.452;-2.264;2023-08-06T06:44:14;7.70;;;6.27;;
6356;SDS011;3211;53.452;-2.264;2023-08-06T06:46:58;7.10;;;5.30;;
6356;SDS011;3211;53.452;-2.264;2023-08-06T06:49:39;7.27;;;5.40;;
6356;SDS011;3211;53.452;-2.264;2023-08-06T06:52:21;7.33;;;5.40;;
6356;SDS011;3211;53.452;-2.264;2023-08-06T06:55:04;7.73;;;6.03;;
6356;SDS011;3211;53.452;-2.264;2023-08-06T06:57:46;8.80;;;6.10;;
6356;SDS011;3211;53.452;-2.264;2023-08-06T07:00:28;9.40;;;5.80;;
6356;SDS011;3211;53.452;-2.264;2023-08-06T07:03:12;9.50;;;6.07;;
6356;SDS011;3211;53.452;-2.264;2023-08-06T07:05:57;6.30;;;5.50;;
6356;SDS011;3211;53.452;-2.264;2023-08-06T07:08:39;9.87;;;6.03;;
6356;SDS011;3211;53.452;-2.264;2023-08-06T07:11:21;8.23;;;5.80;;
6356;SDS011;3211;53.452;-2.264;2023-08-06T07:14:03;7.87;;;5.80;;
6356;SDS011;3211;53.452;-2.264;2023-08-06T07:16:45;9.00;;;5.67;;
6356;SDS011;3211;53.452;-2.264;2023-08-06T07:19:28;7.77;;;5.83;;
6356;SDS011;3211;53.452;-2.264;2023-08-06T07:22:10;17.53;;;5.70;;
6356;SDS011;3211;53.452;-2.264;2023-08-06T07:24:52;4.97;;;4.47;;
6356;SDS011;3211;53.452;-2.264;2023-08-06T07:27:34;7.53;;;5.13;;
6356;SDS011;3211;53.452;-2.264;2023-08-06T07:30:16;5.37;;;4.50;;
6356;SDS011;3211;53.452;-2.264;2023-08-06T07:32:58;5.73;;;4.80;;
6356;SDS011;3211;53.452;-2.264;2023-08-06T07:35:42;9.30;;;4.90;;
6356;SDS011;3211;53.452;-2.264;2023-08-06T07:38:24;8.70;;;4.90;;
6356;SDS011;3211;53.452;-2.264;2023-08-06T07:41:06;6.30;;;4.50;;
6356;SDS011;3211;53.452;-2.264;2023-08-06T07:43:49;9.10;;;4.80;;
6356;SDS011;3211;53.452;-2.264;2023-08-06T07:46:31;6.47;;;4.83;;
6356;SDS011;3211;53.452;-2.264;2023-08-06T07:49:13;11.03;;;6.10;;
6356;SDS011;3211;53.452;-2.264;2023-08-06T07:51:56;7.30;;;5.17;;
6356;SDS011;3211;53.452;-2.264;2023-08-06T07:54:38;5.17;;;4.00;;
6356;SDS011;3211;53.452;-2.264;2023-08-06T07:57:20;12.03;;;4.60;;
6356;SDS011;3211;53.452;-2.264;2023-08-06T08:00:02;8.17;;;4.40;;
6356;SDS011;3211;53.452;-2.264;2023-08-06T08:02:45;6.07;;;4.37;;
6356;SDS011;3211;53.452;-2.264;2023-08-06T08:05:27;5.20;;;3.93;;
6356;SDS011;3211;53.452;-2.264;2023-08-06T08:08:10;6.77;;;3.70;;
6356;SDS011;3211;53.452;-2.264;2023-08-06T08:10:53;4.00;;;3.13;;
6356;SDS011;3211;53.452;-2.264;2023-08-06T08:13:36;8.27;;;3.70;;
6356;SDS011;3211;53.452;-2.264;2023-08-06T08:16:18;6.23;;;4.00;;
6356;SDS011;3211;53.452;-2.264;2023-08-06T08:19:00;6.10;;;3.43;;
6356;SDS011;3211;53.452;-2.264;2023-08-06T08:21:44;5.13;;;3.30;;
6356;SDS011;3211;53.452;-2.264;2023-08-06T08:24:27;3.63;;;3.33;;
6356;SDS011;3211;53.452;-2.264;2023-08-06T08:27:10;10.33;;;3.80;;
6356;SDS011;3211;53.452;-2.264;2023-08-06T08:29:52;5.10;;;2.67;;
6356;SDS011;3211;53.452;-2.264;2023-08-06T08:32:34;7.07;;;2.73;;
6356;SDS011;3211;53.452;-2.264;2023-08-06T08:35:16;4.80;;;3.03;;
6356;SDS011;3211;53.452;-2.264;2023-08-06T08:37:58;4.50;;;2.70;;
6356;SDS011;3211;53.452;-2.264;2023-08-06T08:40:43;3.30;;;2.60;;
6356;SDS011;3211;53.452;-2.264;2023-08-06T08:43:27;5.60;;;3.37;;
6356;SDS011;3211;53.452;-2.264;2023-08-06T08:46:10;4.20;;;2.80;;
6356;SDS011;3211;53.452;-2.264;2023-08-06T08:48:54;3.53;;;2.63;;
6356;SDS011;3211;53.452;-2.264;2023-08-06T08:51:38;5.53;;;2.83;;
6356;SDS011;3211;53.452;-2.264;2023-08-06T08:54:20;2.60;;;2.40;;
6356;SDS011;3211;53.452;-2.264;2023-08-06T08:57:06;5.93;;;2.57;;
6356;SDS011;3211;53.452;-2.264;2023-08-06T08:59:48;5.70;;;3.00;;
6356;SDS011;3211;53.452;-2.264;2023-08-06T09:02:32;4.80;;;2.57;;
6356;SDS011;3211;53.452;-2.264;2023-08-06T09:05:15;4.40;;;2.40;;
6356;SDS011;3211;53.452;-2.264;2023-08-06T09:07:59;2.80;;;2.50;;
6356;SDS011;3211;53.452;-2.264;2023-08-06T09:10:44;7.30;;;2.80;;
6356;SDS011;3211;53.452;-2.264;2023-08-06T09:13:31;4.30;;;2.47;;
6356;SDS011;3211;53.452;-2.264;2023-08-06T09:16:13;2.43;;;2.23;;
6356;SDS011;3211;53.452;-2.264;2023-08-06T09:18:55;4.13;;;2.80;;
6356;SDS011;3211;53.452;-2.264;2023-08-06T09:21:50;5.10;;;3.03;;
6356;SDS011;3211;53.452;-2.264;2023-08-06T09:24:32;4.70;;;3.37;;
6356;SDS011;3211;53.452;-2.264;2023-08-06T09:27:14;2.30;;;2.10;;
6356;SDS011;3211;53.452;-2.264;2023-08-06T09:29:59;3.00;;;2.70;;
6356;SDS011;3211;53.452;-2.264;2023-08-06T09:32:44;5.33;;;2.57;;
6356;SDS011;3211;53.452;-2.264;2023-08-06T09:35:28;2.63;;;2.40;;
6356;SDS011;3211;53.452;-2.264;2023-08-06T09:38:10;3.70;;;2.80;;
6356;SDS011;3211;53.452;-2.264;2023-08-06T09:40:52;2.57;;;2.13;;
6356;SDS011;3211;53.452;-2.264;2023-08-06T09:43:41;3.10;;;2.30;;
6356;SDS011;3211;53.452;-2.264;2023-08-06T09:46:24;3.10;;;2.10;;
6356;SDS011;3211;53.452;-2.264;2023-08-06T09:49:06;3.30;;;2.10;;
6356;SDS011;3211;53.452;-2.264;2023-08-06T09:51:50;3.60;;;2.20;;
6356;SDS011;3211;53.452;-2.264;2023-08-06T09:54:35;3.13;;;2.63;;
6356;SDS011;3211;53.452;-2.264;2023-08-06T09:57:18;3.63;;;2.43;;
6356;SDS011;3211;53.452;-2.264;2023-08-06T10:00:01;3.10;;;2.23;;
6356;SDS011;3211;53.452;-2.264;2023-08-06T10:02:46;2.30;;;2.10;;
6356;SDS011;3211;53.452;-2.264;2023-08-06T10:05:29;2.50;;;2.30;;
6356;SDS011;3211;53.452;-2.264;2023-08-06T10:08:13;3.27;;;2.40;;
6356;SDS011;3211;53.452;-2.264;2023-08-06T10:10:55;3.50;;;2.47;;
6356;SDS011;3211;53.452;-2.264;2023-08-06T10:13:37;2.90;;;2.60;;
6356;SDS011;3211;53.452;-2.264;2023-08-06T10:16:20;2.40;;;2.20;;
6356;SDS011;3211;53.452;-2.264;2023-08-06T10:19:05;1.97;;;1.70;;
6356;SDS011;3211;53.452;-2.264;2023-08-06T10:24:52;1.97;;;1.77;;
6356;SDS011;3211;53.452;-2.264;2023-08-06T10:27:39;2.17;;;1.97;;
6356;SDS011;3211;53.452;-2.264;2023-08-06T10:30:33;4.40;;;2.43;;
6356;SDS011;3211;53.452;-2.264;2023-08-06T10:33:22;6.27;;;2.70;;
6356;SDS011;3211;53.452;-2.264;2023-08-06T10:36:05;2.80;;;2.27;;
6356;SDS011;3211;53.452;-2.264;2023-08-06T10:38:50;2.30;;;2.10;;
6356;SDS011;3211;53.452;-2.264;2023-08-06T10:41:32;2.43;;;2.17;;
6356;SDS011;3211;53.452;-2.264;2023-08-06T10:44:14;3.37;;;2.03;;
6356;SDS011;3211;53.452;-2.264;2023-08-06T10:46:56;4.23;;;2.33;;
6356;SDS011;3211;53.452;-2.264;2023-08-06T10:50:07;2.57;;;2.37;;
6356;SDS011;3211;53.452;-2.264;2023-08-06T10:52:53;3.30;;;2.63;;
6356;SDS011;3211;53.452;-2.264;2023-08-06T10:55:35;2.90;;;2.33;;
6356;SDS011;3211;53.452;-2.264;2023-08-06T10:58:18;3.37;;;2.57;;
6356;SDS011;3211;53.452;-2.264;2023-08-06T11:01:00;3.17;;;2.00;;
6356;SDS011;3211;53.452;-2.264;2023-08-06T11:03:43;2.80;;;2.27;;
6356;SDS011;3211;53.452;-2.264;2023-08-06T11:06:25;3.80;;;2.47;;
6356;SDS011;3211;53.452;-2.264;2023-08-06T11:09:09;2.67;;;2.30;;
6356;SDS011;3211;53.452;-2.264;2023-08-06T11:11:51;2.67;;;2.40;;
6356;SDS011;3211;53.452;-2.264;2023-08-06T11:14:33;3.20;;;2.43;;
6356;SDS011;3211;53.452;-2.264;2023-08-06T11:17:15;2.57;;;2.27;;
6356;SDS011;3211;53.452;-2.264;2023-08-06T11:19:58;3.47;;;2.20;;
6356;SDS011;3211;53.452;-2.264;2023-08-06T11:22:41;2.73;;;2.30;;
6356;SDS011;3211;53.452;-2.264;2023-08-06T11:25:24;3.10;;;2.43;;
6356;SDS011;3211;53.452;-2.264;2023-08-06T11:28:06;2.13;;;1.93;;
6356;SDS011;3211;53.452;-2.264;2023-08-06T11:30:49;4.77;;;2.40;;
6356;SDS011;3211;53.452;-2.264;2023-08-06T11:33:31;2.70;;;2.50;;
6356;SDS011;3211;53.452;-2.264;2023-08-06T11:36:13;2.37;;;2.17;;
6356;SDS011;3211;53.452;-2.264;2023-08-06T11:38:55;2.90;;;2.60;;
6356;SDS011;3211;53.452;-2.264;2023-08-06T11:41:38;3.53;;;2.80;;
6356;SDS011;3211;53.452;-2.264;2023-08-06T11:44:22;2.53;;;2.30;;
6356;SDS011;3211;53.452;-2.264;2023-08-06T11:47:05;3.17;;;2.00;;
6356;SDS011;3211;53.452;-2.264;2023-08-06T11:49:47;2.47;;;2.27;;
6356;SDS011;3211;53.452;-2.264;2023-08-06T11:52:30;3.07;;;2.23;;
6356;SDS011;3211;53.452;-2.264;2023-08-06T11:55:13;2.07;;;1.83;;
6356;SDS011;3211;53.452;-2.264;2023-08-06T11:57:56;3.80;;;2.40;;
6356;SDS011;3211;53.452;-2.264;2023-08-06T12:00:39;3.00;;;2.00;;
6356;SDS011;3211;53.452;-2.264;2023-08-06T12:03:21;6.73;;;1.90;;
6356;SDS011;3211;53.452;-2.264;2023-08-06T12:06:07;4.07;;;2.50;;
6356;SDS011;3211;53.452;-2.264;2023-08-06T12:08:49;4.07;;;2.00;;
6356;SDS011;3211;53.452;-2.264;2023-08-06T12:11:31;3.00;;;2.00;;
6356;SDS011;3211;53.452;-2.264;2023-08-06T12:14:14;2.20;;;2.00;;
6356;SDS011;3211;53.452;-2.264;2023-08-06T12:16:56;2.97;;;1.90;;
6356;SDS011;3211;53.452;-2.264;2023-08-06T12:19:38;5.40;;;2.10;;
6356;SDS011;3211;53.452;-2.264;2023-08-06T12:22:20;2.77;;;2.00;;
6356;SDS011;3211;53.452;-2.264;2023-08-06T12:25:02;4.73;;;2.30;;
6356;SDS011;3211;53.452;-2.264;2023-08-06T12:27:48;3.27;;;2.20;;
6356;SDS011;3211;53.452;-2.264;2023-08-06T12:30:31;3.60;;;2.10;;
6356;SDS011;3211;53.452;-2.264;2023-08-06T12:33:13;2.80;;;2.10;;
6356;SDS011;3211;53.452;-2.264;2023-08-06T12:35:55;2.13;;;1.93;;
6356;SDS011;3211;53.452;-2.264;2023-08-06T12:38:38;3.00;;;2.07;;
6356;SDS011;3211;53.452;-2.264;2023-08-06T12:41:19;2.37;;;2.00;;
6356;SDS011;3211;53.452;-2.264;2023-08-06T12:44:02;4.00;;;1.97;;
6356;SDS011;3211;53.452;-2.264;2023-08-06T12:46:45;6.63;;;2.50;;
6356;SDS011;3211;53.452;-2.264;2023-08-06T12:49:27;3.47;;;2.57;;
6356;SDS011;3211;53.452;-2.264;2023-08-06T12:52:10;2.57;;;1.90;;
6356;SDS011;3211;53.452;-2.264;2023-08-06T12:54:55;3.33;;;2.13;;
6356;SDS011;3211;53.452;-2.264;2023-08-06T12:57:37;9.23;;;2.27;;
6356;SDS011;3211;53.452;-2.264;2023-08-06T13:00:18;2.07;;;1.80;;
6356;SDS011;3211;53.452;-2.264;2023-08-06T13:03:02;2.60;;;1.80;;
6356;SDS011;3211;53.452;-2.264;2023-08-06T13:05:44;3.70;;;1.80;;
6356;SDS011;3211;53.452;-2.264;2023-08-06T13:08:26;2.30;;;1.97;;
6356;SDS011;3211;53.452;-2.264;2023-08-06T13:11:08;3.83;;;1.77;;
6356;SDS011;3211;53.452;-2.264;2023-08-06T13:13:50;3.00;;;1.87;;
6356;SDS011;3211;53.452;-2.264;2023-08-06T13:16:32;3.23;;;1.90;;
6356;SDS011;3211;53.452;-2.264;2023-08-06T13:19:15;3.30;;;1.93;;
6356;SDS011;3211;53.452;-2.264;2023-08-06T13:21:58;2.40;;;1.53;;
6356;SDS011;3211;53.452;-2.264;2023-08-06T13:24:43;2.73;;;1.80;;
6356;SDS011;3211;53.452;-2.264;2023-08-06T13:27:25;2.00;;;1.80;;
6356;SDS011;3211;53.452;-2.264;2023-08-06T13:30:07;2.67;;;2.10;;
6356;SDS011;3211;53.452;-2.264;2023-08-06T13:32:50;2.77;;;1.97;;
6356;SDS011;3211;53.452;-2.264;2023-08-06T13:35:33;4.40;;;2.67;;
6356;SDS011;3211;53.452;-2.264;2023-08-06T13:38:15;2.07;;;1.90;;
6356;SDS011;3211;53.452;-2.264;2023-08-06T13:40:57;2.07;;;1.67;;
6356;SDS011;3211;53.452;-2.264;2023-08-06T13:43:39;2.50;;;1.93;;
6356;SDS011;3211;53.452;-2.264;2023-08-06T13:46:21;2.50;;;2.00;;
6356;SDS011;3211;53.452;-2.264;2023-08-06T13:49:04;2.30;;;1.97;;
6356;SDS011;3211;53.452;-2.264;2023-08-06T13:51:47;1.60;;;1.50;;
6356;SDS011;3211;53.452;-2.264;2023-08-06T13:54:29;1.83;;;1.70;;
6356;SDS011;3211;53.452;-2.264;2023-08-06T13:57:11;2.00;;;1.80;;
6356;SDS011;3211;53.452;-2.264;2023-08-06T13:59:53;1.80;;;1.63;;
6356;SDS011;3211;53.452;-2.264;2023-08-06T14:02:35;1.97;;;1.50;;
6356;SDS011;3211;53.452;-2.264;2023-08-06T14:05:17;4.10;;;1.80;;
6356;SDS011;3211;53.452;-2.264;2023-08-06T14:08:00;1.87;;;1.67;;
6356;SDS011;3211;53.452;-2.264;2023-08-06T14:10:42;1.77;;;1.50;;
6356;SDS011;3211;53.452;-2.264;2023-08-06T14:13:24;1.50;;;1.40;;
6356;SDS011;3211;53.452;-2.264;2023-08-06T14:16:06;2.50;;;1.73;;
6356;SDS011;3211;53.452;-2.264;2023-08-06T14:18:48;2.97;;;1.70;;
6356;SDS011;3211;53.452;-2.264;2023-08-06T14:21:30;2.10;;;1.87;;
6356;SDS011;3211;53.452;-2.264;2023-08-06T14:24:14;3.23;;;1.97;;
6356;SDS011;3211;53.452;-2.264;2023-08-06T14:26:56;2.33;;;2.10;;
6356;SDS011;3211;53.452;-2.264;2023-08-06T14:29:38;3.30;;;2.10;;
6356;SDS011;3211;53.452;-2.264;2023-08-06T14:32:20;2.90;;;2.37;;
6356;SDS011;3211;53.452;-2.264;2023-08-06T14:35:02;3.67;;;1.90;;
6356;SDS011;3211;53.452;-2.264;2023-08-06T14:37:44;3.03;;;1.90;;
6356;SDS011;3211;53.452;-2.264;2023-08-06T14:40:27;5.60;;;1.77;;
6356;SDS011;3211;53.452;-2.264;2023-08-06T14:43:13;2.73;;;1.90;;
6356;SDS011;3211;53.452;-2.264;2023-08-06T14:45:55;2.60;;;1.77;;
6356;SDS011;3211;53.452;-2.264;2023-08-06T14:48:37;2.80;;;1.90;;
6356;SDS011;3211;53.452;-2.264;2023-08-06T14:51:19;4.07;;;2.10;;
6356;SDS011;3211;53.452;-2.264;2023-08-06T14:54:01;2.60;;;2.20;;
6356;SDS011;3211;53.452;-2.264;2023-08-06T14:56:44;2.47;;;1.60;;
6356;SDS011;3211;53.452;-2.264;2023-08-06T14:59:26;1.73;;;1.60;;
6356;SDS011;3211;53.452;-2.264;2023-08-06T15:02:08;1.70;;;1.37;;
6356;SDS011;3211;53.452;-2.264;2023-08-06T15:04:50;2.23;;;1.80;;
6356;SDS011;3211;53.452;-2.264;2023-08-06T15:07:36;1.70;;;1.20;;
6356;SDS011;3211;53.452;-2.264;2023-08-06T15:10:18;2.83;;;1.90;;
6356;SDS011;3211;53.452;-2.264;2023-08-06T15:13:01;4.97;;;2.10;;
6356;SDS011;3211;53.452;-2.264;2023-08-06T15:15:45;1.70;;;1.30;;
6356;SDS011;3211;53.452;-2.264;2023-08-06T15:18:31;1.73;;;1.40;;
6356;SDS011;3211;53.452;-2.264;2023-08-06T15:21:13;1.33;;;1.20;;
6356;SDS011;3211;53.452;-2.264;2023-08-06T15:23:56;1.30;;;1.20;;
6356;SDS011;3211;53.452;-2.264;2023-08-06T15:26:38;1.77;;;1.30;;
6356;SDS011;3211;53.452;-2.264;2023-08-06T15:29:25;3.33;;;1.30;;
6356;SDS011;3211;53.452;-2.264;2023-08-06T15:32:07;1.37;;;1.23;;
6356;SDS011;3211;53.452;-2.264;2023-08-06T15:34:49;1.60;;;1.10;;
6356;SDS011;3211;53.452;-2.264;2023-08-06T15:37:31;1.87;;;1.40;;
6356;SDS011;3211;53.452;-2.264;2023-08-06T15:40:16;1.63;;;1.20;;
6356;SDS011;3211;53.452;-2.264;2023-08-06T15:42:58;1.83;;;1.20;;
6356;SDS011;3211;53.452;-2.264;2023-08-06T15:45:42;1.93;;;1.30;;
6356;SDS011;3211;53.452;-2.264;2023-08-06T15:48:24;3.20;;;1.50;;
6356;SDS011;3211;53.452;-2.264;2023-08-06T15:51:09;1.40;;;1.30;;
6356;SDS011;3211;53.452;-2.264;2023-08-06T15:53:51;1.97;;;1.20;;
6356;SDS011;3211;53.452;-2.264;2023-08-06T15:56:33;2.10;;;1.40;;
6356;SDS011;3211;53.452;-2.264;2023-08-06T15:59:22;1.53;;;1.20;;
6356;SDS011;3211;53.452;-2.264;2023-08-06T16:02:06;3.37;;;1.20;;
6356;SDS011;3211;53.452;-2.264;2023-08-06T16:04:49;1.23;;;1.13;;
6356;SDS011;3211;53.452;-2.264;2023-08-06T16:07:35;2.13;;;1.40;;
6356;SDS011;3211;53.452;-2.264;2023-08-06T16:10:17;2.13;;;1.40;;
6356;SDS011;3211;53.452;-2.264;2023-08-06T16:12:59;2.43;;;1.40;;
6356;SDS011;3211;53.452;-2.264;2023-08-06T16:15:41;2.00;;;1.30;;
6356;SDS011;3211;53.452;-2.264;2023-08-06T16:18:28;1.60;;;1.37;;
6356;SDS011;3211;53.452;-2.264;2023-08-06T16:21:10;3.53;;;1.67;;
6356;SDS011;3211;53.452;-2.264;2023-08-06T16:23:52;2.03;;;1.40;;
6356;SDS011;3211;53.452;-2.264;2023-08-06T16:26:34;3.30;;;1.50;;
6356;SDS011;3211;53.452;-2.264;2023-08-06T16:29:17;1.67;;;1.20;;
6356;SDS011;3211;53.452;-2.264;2023-08-06T16:31:59;2.83;;;1.40;;
6356;SDS011;3211;53.452;-2.264;2023-08-06T16:34:42;1.30;;;1.10;;
6356;SDS011;3211;53.452;-2.264;2023-08-06T16:37:24;4.57;;;2.07;;
6356;SDS011;3211;53.452;-2.264;2023-08-06T16:40:07;2.17;;;1.20;;